Latest Weather Observations for Batchelor

IDD60901

Issued at 12:31 pm CST Wednesday 1 April 2015 (issued every 10 minutes, with the page automatically refreshed every 10 minutes)

About weather observations | Map of Darwin area stations | Latest observations for Darwin area | Other Formats
Station Details ID: 014272 Name: BATCHELOR AIRPORT Lat: -13.05 Lon: 131.03 Height: 104.0 m
Data from the previous 72 hours. | See also: Recent months at Batchelor
Date/Time
CST
Tmp

°C
App
Tmp
°C
Dew
Point
°C
Rel
Hum
%
Delta-T

°C
Wind Press
QNH
hPa
Press
MSL
hPa
Rain
since
9 am
mm
Dir
 
Spd
km/h
Gust
km/h
Spd
kts
Gust
kts
01/12:30pm 33.5 35.9 21.6 49 8.1 ESE 11 20 6 11 1011.1 1010.5 0.2
01/12:00pm 32.8 35.5 20.7 49 8.1 E 7 13 4 7 1011.5 1010.9 0.2
01/11:30am 31.9 35.8 22.6 58 6.4 SE 6 11 3 6 1012.2 1011.6 0.2
01/11:00am 31.6 36.2 23.2 61 5.8 NNW 4 9 2 5 1012.6 1012.0 0.2
01/10:30am 30.6 34.5 22.5 62 5.5 WSW 6 11 3 6 1013.0 1012.3 0.2
01/10:00am 30.1 34.8 23.3 67 4.7 W 4 7 2 4 1013.1 1012.4 0.2
01/09:30am 29.9 34.5 23.8 70 4.2 W 6 11 3 6 1013.1 1012.4 0.0
01/09:00am 28.7 32.8 22.9 71 4.0 W 6 9 3 5 1013.2 1012.4 0.0
01/08:30am 27.9 33.3 24.5 82 2.4 W 4 6 2 3 1013.0 1012.2 0.0
01/08:00am 26.1 32.0 24.1 89 1.4 CALM 0 2 0 1 1012.6 1011.9 0.0
01/07:30am 24.1 29.4 23.1 94 0.7 CALM 0 0 0 0 1012.3 1011.6 0.0
01/07:00am 23.5 28.6 22.7 95 0.5 CALM 0 0 0 0 1011.9 1011.2 0.0
01/06:30am 23.1 27.9 22.1 94 0.7 CALM 0 0 0 0 1011.7 1011.0 0.0
01/06:00am 23.7 28.8 22.7 94 0.7 CALM 0 0 0 0 1011.3 1010.6 0.0
01/05:30am 23.6 28.5 22.4 93 0.8 CALM 0 0 0 0 1011.3 1010.6 0.0
01/05:00am 23.7 28.6 22.3 92 0.9 CALM 0 0 0 0 1011.3 1010.6 0.0
01/04:30am 23.8 28.7 22.4 92 0.9 CALM 0 0 0 0 1011.1 1010.4 0.0
01/04:00am 24.1 29.3 22.9 93 0.8 CALM 0 0 0 0 1011.0 1010.3 0.0
01/03:30am 24.0 28.9 22.4 91 1.1 CALM 0 0 0 0 1011.1 1010.4 0.0
01/03:00am 24.1 29.1 22.5 91 1.1 CALM 0 0 0 0 1011.3 1010.6 0.0
01/02:30am 24.5 29.8 23.1 92 1.0 CALM 0 0 0 0 1011.5 1010.8 0.0
01/02:00am 24.3 29.4 22.7 91 1.1 CALM 0 0 0 0 1011.6 1010.9 0.0
01/01:30am 24.5 29.7 22.9 91 1.1 CALM 0 0 0 0 1011.8 1011.1 0.0
01/01:00am 24.8 29.8 22.5 87 1.5 CALM 0 0 0 0 1012.0 1011.3 0.0
01/12:30am 25.4 30.1 23.3 88 1.4 W 4 6 2 3 1012.2 1011.5 0.0
01/12:00am 25.3 30.7 23.2 88 1.4 CALM 0 0 0 0 1012.5 1011.8 0.0
 
Date/Time
CST
Tmp

°C
App
Tmp
°C
Dew
Point
°C
Rel
Hum
%
Delta-T

°C
Wind Press
QNH
hPa
Press
MSL
hPa
Rain
since
9 am
mm
Dir
 
Spd
km/h
Gust
km/h
Spd
kts
Gust
kts
31/11:30pm 25.6 30.9 23.1 86 1.7 CALM 0 0 0 0 1012.5 1011.8 0.0
31/11:00pm 26.1 31.5 23.2 84 2.0 CALM 0 2 0 1 1012.6 1011.9 0.0
31/10:30pm 26.5 31.4 23.6 84 2.0 WNW 4 4 2 2 1012.4 1011.7 0.0
31/10:00pm 26.7 31.4 23.4 82 2.3 NW 4 7 2 4 1012.3 1011.6 0.0
31/09:30pm 26.9 31.1 23.2 80 2.5 NW 6 7 3 4 1012.0 1011.3 0.0
31/09:00pm 26.6 30.4 22.4 78 2.8 NW 6 7 3 4 1011.9 1011.2 0.0
31/08:30pm 26.8 31.7 22.4 77 3.0 CALM 0 0 0 0 1011.5 1010.8 0.0
31/08:00pm 27.3 31.9 22.5 75 3.3 N 2 2 1 1 1011.2 1010.5 0.0
31/07:30pm 28.0 32.7 22.0 70 4.1 CALM 0 0 0 0 1010.9 1010.2 0.0
31/07:00pm 29.6 33.7 21.5 61 5.5 N 2 2 1 1 1010.6 1009.9 0.0
31/06:30pm 31.8 34.3 19.1 47 8.3 NNE 4 6 2 3 1010.4 1009.7 0.0
31/06:00pm 32.7 34.1 17.7 40 9.7 ENE 7 13 4 7 1010.2 1009.5 0.0
31/05:30pm 33.6 34.2 16.9 37 10.7 ENE 9 11 5 6 1010.0 1009.3 0.0
31/05:00pm 33.7 33.6 17.0 37 10.7 ESE 13 17 7 9 1009.9 1009.2 0.0
31/04:30pm 34.2 33.9 16.5 34 11.3 E 13 19 7 10 1009.7 1009.0 0.0
31/04:00pm 34.2 33.8 16.1 34 11.5 E 13 19 7 10 1009.7 1009.0 0.0
31/03:30pm 34.2 33.4 16.1 34 11.5 E 15 22 8 12 1009.6 1008.9 0.0
31/03:00pm 34.0 34.6 17.7 38 10.6 ESE 11 19 6 10 1009.8 1009.1 0.0
31/02:30pm 33.9 33.7 16.7 35 11.0 ENE 13 19 7 10 1010.2 1009.5 0.0
31/02:00pm 34.0 32.7 15.9 33 11.4 E 17 24 9 13 1010.6 1009.9 0.0
31/01:30pm 33.7 32.9 17.0 37 10.7 ENE 17 30 9 16 1011.0 1010.3 0.0
31/01:00pm 33.7 33.9 18.6 40 9.9 ENE 15 24 8 13 1011.5 1010.8 0.0
31/12:30pm 33.2 33.4 19.3 44 9.2 ESE 17 26 9 14 1012.0 1011.3 0.0
31/12:00pm 33.0 34.0 20.2 47 8.5 SE 15 20 8 11 1012.4 1011.7 0.0
31/11:30am 32.5 35.0 21.7 53 7.3 E 11 20 6 11 1013.0 1012.2 0.0
31/11:00am 31.9 33.6 20.2 50 7.8 E 11 19 6 10 1013.4 1012.6 0.0
31/10:30am 30.8 33.9 22.1 59 5.9 ESE 9 15 5 8 1013.6 1012.8 0.0
31/10:00am 30.8 34.8 22.7 62 5.6 ESE 6 9 3 5 1013.8 1013.0 0.0
31/09:30am 30.0 35.0 23.2 67 4.7 SE 2 9 1 5 1014.0 1013.2 0.0
31/09:00am 28.8 33.0 22.5 68 4.3 SSE 4 7 2 4 1014.0 1013.2 0.0
31/08:30am 27.7 33.5 23.9 80 2.6 CALM 0 4 0 2 1013.8 1013.0 0.0
31/08:00am 25.9 31.0 22.6 82 2.2 CALM 0 0 0 0 1013.5 1012.7 0.0
31/07:30am 23.8 28.7 22.4 92 0.9 CALM 0 0 0 0 1013.3 1012.5 0.0
31/07:00am 22.5 26.7 21.0 91 1.0 CALM 0 0 0 0 1012.9 1012.1 0.0
31/06:30am 22.6 26.9 21.1 91 1.0 CALM 0 0 0 0 1012.8 1012.0 0.0
31/06:00am 22.8 27.2 21.3 91 1.0 CALM 0 0 0 0 1012.5 1011.8 0.0
31/05:30am 23.0 27.5 21.6 92 0.9 CALM 0 0 0 0 1012.2 1011.5 0.0
31/05:00am 22.9 27.3 21.4 91 1.0 CALM 0 0 0 0 1012.0 1011.3 0.0
31/04:30am 23.3 28.0 21.9 92 0.9 CALM 0 0 0 0 1011.8 1011.1 0.0
31/04:00am 23.4 28.1 22.0 92 0.9 CALM 0 0 0 0 1011.8 1011.1 0.0
31/03:30am 23.4 28.0 21.8 91 1.1 CALM 0 0 0 0 1011.8 1011.1 0.0
31/03:00am 23.5 28.3 22.1 92 0.9 CALM 0 0 0 0 1011.9 1011.2 0.0
31/02:30am 23.6 28.3 21.9 90 1.1 CALM 0 0 0 0 1012.3 1011.6 0.0
31/02:00am 23.9 28.8 22.3 91 1.1 CALM 0 0 0 0 1012.8 1012.0 0.0
31/01:30am 23.9 28.7 22.2 90 1.1 CALM 0 0 0 0 1013.0 1012.2 0.0
31/01:00am 24.0 28.9 22.3 90 1.1 CALM 0 0 0 0 1013.2 1012.4 0.0
31/12:30am 24.1 29.0 22.4 90 1.1 CALM 0 0 0 0 1013.4 1012.6 0.0
31/12:00am 24.2 28.9 21.9 87 1.5 CALM 0 0 0 0 1013.5 1012.7 0.0
 
Date/Time
CST
Tmp

°C
App
Tmp
°C
Dew
Point
°C
Rel
Hum
%
Delta-T

°C
Wind Press
QNH
hPa
Press
MSL
hPa
Rain
since
9 am
mm
Dir
 
Spd
km/h
Gust
km/h
Spd
kts
Gust
kts
30/11:30pm 24.5 29.3 22.2 87 1.5 CALM 0 0 0 0 1013.5 1012.7 0.0
30/11:00pm 24.5 29.2 22.0 86 1.7 CALM 0 0 0 0 1013.5 1012.7 0.0
30/10:30pm 24.6 29.5 22.3 87 1.5 CALM 0 0 0 0 1013.4 1012.6 0.0
30/10:00pm 25.1 29.8 22.0 83 2.1 CALM 0 0 0 0 1013.3 1012.5 0.0
30/09:30pm 26.3 30.6 21.9 77 3.0 N 2 2 1 1 1013.1 1012.3 0.0
30/09:00pm 26.6 30.4 21.6 74 3.3 N 4 4 2 2 1013.0 1012.2 0.0
30/08:30pm 27.5 31.6 21.5 70 4.0 N 2 4 1 2 1012.5 1011.8 0.0
30/08:00pm 28.8 32.1 20.8 62 5.3 N 4 6 2 3 1012.1 1011.4 0.0
30/07:30pm 29.4 32.7 20.8 60 5.7 N 4 6 2 3 1011.8 1011.1 0.0
30/07:00pm 30.4 33.1 20.3 54 6.7 NNE 6 9 3 5 1011.6 1010.9 0.0
30/06:30pm 31.6 34.7 20.2 50 7.6 ENE 4 7 2 4 1011.2 1010.5 0.0
30/06:00pm 32.3 34.6 19.9 48 8.2 NE 7 11 4 6 1011.0 1010.3 0.0
30/05:30pm 32.8 34.1 19.3 45 8.9 ENE 11 17 6 9 1010.8 1010.1 0.0
30/05:00pm 33.1 33.8 18.8 42 9.4 ENE 13 20 7 11 1010.5 1009.8 0.0
30/04:30pm 33.7 34.3 19.4 43 9.5 E 15 22 8 12 1010.4 1009.7 0.0
30/04:00pm 33.7 34.7 19.4 43 9.5 ENE 13 24 7 13 1010.5 1009.8 0.0
30/03:30pm 33.8 34.2 19.1 42 9.7 ENE 15 26 8 14 1010.7 1010.0 0.0
30/03:00pm 33.6 34.1 19.3 43 9.5 E 15 24 8 13 1010.7 1010.0 0.0
30/02:30pm 33.6 34.7 19.7 44 9.2 E 13 26 7 14 1010.9 1010.2 0.0
30/02:00pm 33.4 33.5 19.1 42 9.4 E 17 24 9 13 1011.1 1010.4 0.0
30/01:30pm 33.1 33.4 18.8 42 9.4 ESE 15 22 8 12 1011.3 1010.6 0.0
30/01:00pm 32.8 33.3 20.0 47 8.5 E 17 24 9 13 1011.8 1011.1 0.0
30/12:30pm 32.4 32.3 19.6 46 8.5 ESE 19 30 10 16 1012.2 1011.5 0.0
30/12:00pm 31.6 32.0 18.9 47 8.3 E 15 24 8 13 1012.9 1012.1 0.0
30/11:30am 31.4 32.8 21.0 54 7.0 ENE 15 24 8 13 1013.4 1012.6 0.0
30/11:00am 30.7 33.3 22.0 59 5.9 ESE 11 19 6 10 1013.6 1012.8 0.0
30/10:30am 30.4 34.2 22.8 64 5.2 ENE 7 17 4 9 1013.8 1013.0 0.0
30/10:00am 29.2 32.8 22.4 66 4.6 E 7 11 4 6 1014.0 1013.2 0.0
30/09:30am 28.5 32.8 23.6 75 3.4 E 7 11 4 6 1014.0 1013.2 0.0
30/09:00am 27.8 32.3 23.6 78 2.9 E 6 9 3 5 1013.9 1013.1 0.0
30/08:30am 26.7 32.2 24.7 89 1.4 E 4 6 2 3 1013.6 1012.8 0.0
30/08:00am 25.1 30.1 23.9 93 0.8 E 4 6 2 3 1013.1 1012.3 0.0
30/07:30am 24.2 29.0 23.5 96 0.5 E 4 6 2 3 1012.8 1012.0 0.0
30/07:00am 23.5 27.9 22.8 96 0.5 E 4 6 2 3 1012.4 1011.7 0.0
30/06:30am 23.7 27.9 23.2 97 0.3 NW 6 6 3 3 1012.0 1011.3 0.0
30/06:00am 23.1 28.0 22.4 96 0.5 CALM 0 0 0 0 1011.8 1011.1 0.0
30/05:30am 23.1 28.0 22.4 96 0.5 CALM 0 0 0 0 1011.7 1011.0 0.0
30/05:00am 22.8 27.4 21.8 94 0.7 CALM 0 0 0 0 1011.6 1010.9 0.0
30/04:30am 23.1 28.0 22.3 95 0.5 CALM 0 0 0 0 1011.4 1010.7 0.0
30/04:00am 23.5 28.6 22.7 95 0.5 CALM 0 0 0 0 1011.4 1010.7 0.0
30/03:30am 23.6 28.8 22.8 95 0.5 CALM 0 0 0 0 1011.4 1010.7 0.0
30/03:00am 23.7 28.8 22.7 94 0.7 CALM 0 0 0 0 1011.5 1010.8 0.0
30/02:30am 23.9 29.1 22.9 94 0.7 CALM 0 0 0 0 1011.7 1011.0 0.0
30/02:00am 24.1 29.4 23.1 94 0.7 CALM 0 0 0 0 1012.1 1011.4 0.0
30/01:30am 24.2 29.5 23.0 93 0.8 CALM 0 0 0 0 1012.4 1011.7 0.0
30/01:00am 24.0 28.9 22.4 91 1.1 CALM 0 0 0 0 1012.9 1012.1 0.0
30/12:30am 24.6 30.1 23.4 93 0.8 CALM 0 0 0 0 1013.2 1012.4 0.0
30/12:00am 25.0 30.5 23.4 91 1.1 CALM 0 0 0 0 1013.6 1012.8 0.0
 
Date/Time
CST
Tmp

°C
App
Tmp
°C
Dew
Point
°C
Rel
Hum
%
Delta-T

°C
Wind Press
QNH
hPa
Press
MSL
hPa
Rain
since
9 am
mm
Dir
 
Spd
km/h
Gust
km/h
Spd
kts
Gust
kts
29/11:30pm 25.2 30.6 23.3 89 1.3 CALM 0 0 0 0 1013.7 1012.9 0.0
29/11:00pm 26.0 31.0 23.9 88 1.4 WNW 4 6 2 3 1013.8 1013.0 0.0
29/10:30pm 25.8 31.4 23.5 87 1.6 CALM 0 2 0 1 1013.9 1013.1 0.0
29/10:00pm 26.2 31.1 23.7 86 1.7 WNW 4 6 2 3 1013.8 1013.0 0.0
29/09:30pm 25.7 29.6 22.6 83 2.1 NW 6 7 3 4 1013.6 1012.8 0.0
29/09:00pm 26.5 31.3 22.1 77 3.0 CALM 0 0 0 0 1013.2 1012.4 0.0
29/08:30pm 26.1 31.0 22.4 80 2.5 CALM 0 0 0 0 1012.6 1011.9 0.0
29/08:00pm 26.8 32.0 22.8 79 2.7 CALM 0 0 0 0 1012.3 1011.6 0.0
29/07:30pm 27.5 32.7 22.9 76 3.1 CALM 0 0 0 0 1012.0 1011.3 0.0
29/07:00pm 28.7 33.9 22.9 71 4.0 CALM 0 0 0 0 1011.5 1010.8 0.0
29/06:30pm 30.5 33.9 21.0 57 6.4 E 4 6 2 3 1011.1 1010.4 0.0
29/06:00pm 31.6 33.3 20.2 50 7.6 E 11 17 6 9 1010.7 1010.0 0.0
29/05:30pm 33.3 35.0 20.1 45 8.8 ESE 11 22 6 12 1010.4 1009.7 0.0
29/05:00pm 33.0 33.6 19.5 45 8.9 E 15 20 8 11 1010.3 1009.6 0.0
29/04:30pm 33.8 36.2 20.9 46 8.7 E 9 17 5 9 1010.4 1009.7 0.0
29/04:00pm 33.5 36.0 21.0 48 8.4 ESE 9 17 5 9 1010.3 1009.6 0.0
29/03:30pm 33.0 34.5 20.5 47 8.4 ESE 13 20 7 11 1010.5 1009.8 0.0
29/03:00pm 33.3 34.6 20.8 48 8.4 ESE 15 24 8 13 1010.6 1009.9 0.0
29/02:30pm 33.4 35.8 21.5 49 8.1 E 11 20 6 11 1010.9 1010.2 0.0
29/02:00pm 32.2 33.7 20.5 50 7.8 ENE 13 19 7 10 1011.2 1010.5 0.0
29/01:30pm 32.6 35.7 22.1 54 7.2 NE 9 13 5 7 1011.7 1011.0 0.0
29/01:00pm 31.8 33.8 20.7 51 7.4 E 11 20 6 11 1012.3 1011.6 0.0

Latest Capital City Observations: Canberra | Sydney | Melbourne | Brisbane | Adelaide | Perth | Hobart | Darwin

Other Formats:

Comma delimited format used in spreadsheet applications
http://www.bom.gov.au/fwo/IDD60901/IDD60901.94125.axf

JavaScript Object Notation format (JSON) in row-major order
http://www.bom.gov.au/fwo/IDD60901/IDD60901.94125.json